sensor_id;sensor_type;location;lat;lon;timestamp;P1;durP1;ratioP1;P2;durP2;ratioP2
26157;SDS011;67284;44.782;10.282;2023-02-28T00:04:18;18.13;;;9.60;;
26157;SDS011;67284;44.782;10.282;2023-02-28T00:09:10;14.77;;;9.38;;
26157;SDS011;67284;44.782;10.282;2023-02-28T00:14:01;16.95;;;10.50;;
26157;SDS011;67284;44.782;10.282;2023-02-28T00:18:53;16.95;;;11.20;;
26157;SDS011;67284;44.782;10.282;2023-02-28T00:23:45;15.60;;;10.30;;
26157;SDS011;67284;44.782;10.282;2023-02-28T00:28:37;18.83;;;9.90;;
26157;SDS011;67284;44.782;10.282;2023-02-28T00:33:29;15.05;;;10.00;;
26157;SDS011;67284;44.782;10.282;2023-02-28T00:38:20;20.25;;;11.18;;
26157;SDS011;67284;44.782;10.282;2023-02-28T00:43:12;15.98;;;9.85;;
26157;SDS011;67284;44.782;10.282;2023-02-28T00:48:04;16.38;;;10.75;;
26157;SDS011;67284;44.782;10.282;2023-02-28T00:52:56;13.90;;;9.77;;
26157;SDS011;67284;44.782;10.282;2023-02-28T00:57:48;16.42;;;8.95;;
26157;SDS011;67284;44.782;10.282;2023-02-28T01:02:39;15.00;;;10.13;;
26157;SDS011;67284;44.782;10.282;2023-02-28T01:07:31;16.40;;;10.20;;
26157;SDS011;67284;44.782;10.282;2023-02-28T01:12:23;13.25;;;8.77;;
26157;SDS011;67284;44.782;10.282;2023-02-28T01:17:15;20.75;;;9.63;;
26157;SDS011;67284;44.782;10.282;2023-02-28T01:22:07;17.10;;;9.48;;
26157;SDS011;67284;44.782;10.282;2023-02-28T01:26:59;15.30;;;9.73;;
26157;SDS011;67284;44.782;10.282;2023-02-28T01:31:50;16.27;;;10.27;;
26157;SDS011;67284;44.782;10.282;2023-02-28T01:36:42;17.40;;;10.88;;
26157;SDS011;67284;44.782;10.282;2023-02-28T01:41:34;15.20;;;10.00;;
26157;SDS011;67284;44.782;10.282;2023-02-28T01:46:26;18.15;;;10.05;;
26157;SDS011;67284;44.782;10.282;2023-02-28T01:51:20;16.95;;;10.18;;
26157;SDS011;67284;44.782;10.282;2023-02-28T01:56:16;16.50;;;10.23;;
26157;SDS011;67284;44.782;10.282;2023-02-28T02:06:12;17.60;;;10.77;;
26157;SDS011;67284;44.782;10.282;2023-02-28T02:11:05;17.35;;;9.45;;
26157;SDS011;67284;44.782;10.282;2023-02-28T02:42:44;13.50;;;9.25;;
26157;SDS011;67284;44.782;10.282;2023-02-28T02:47:42;15.07;;;8.95;;
26157;SDS011;67284;44.782;10.282;2023-02-28T02:52:39;14.57;;;9.23;;
26157;SDS011;67284;44.782;10.282;2023-02-28T02:57:38;15.77;;;9.38;;
26157;SDS011;67284;44.782;10.282;2023-02-28T03:02:37;12.10;;;8.70;;
26157;SDS011;67284;44.782;10.282;2023-02-28T03:07:31;11.80;;;8.75;;
26157;SDS011;67284;44.782;10.282;2023-02-28T03:12:23;15.75;;;9.50;;
26157;SDS011;67284;44.782;10.282;2023-02-28T03:33:26;12.95;;;10.30;;
26157;SDS011;67284;44.782;10.282;2023-02-28T03:43:22;12.02;;;9.02;;
26157;SDS011;67284;44.782;10.282;2023-02-28T03:53:50;11.35;;;9.35;;
26157;SDS011;67284;44.782;10.282;2023-02-28T04:04:07;13.20;;;8.73;;
26157;SDS011;67284;44.782;10.282;2023-02-28T04:09:00;14.82;;;9.88;;
26157;SDS011;67284;44.782;10.282;2023-02-28T04:13:53;12.63;;;8.98;;
26157;SDS011;67284;44.782;10.282;2023-02-28T04:18:45;21.20;;;10.63;;
26157;SDS011;67284;44.782;10.282;2023-02-28T04:23:37;13.63;;;9.35;;
26157;SDS011;67284;44.782;10.282;2023-02-28T04:28:28;13.68;;;9.18;;
26157;SDS011;67284;44.782;10.282;2023-02-28T04:33:20;14.48;;;9.45;;
26157;SDS011;67284;44.782;10.282;2023-02-28T04:38:12;13.77;;;10.05;;
26157;SDS011;67284;44.782;10.282;2023-02-28T04:43:04;17.17;;;9.48;;
26157;SDS011;67284;44.782;10.282;2023-02-28T04:47:56;16.67;;;10.13;;
26157;SDS011;67284;44.782;10.282;2023-02-28T04:52:47;14.32;;;9.55;;
26157;SDS011;67284;44.782;10.282;2023-02-28T04:57:40;13.18;;;9.68;;
26157;SDS011;67284;44.782;10.282;2023-02-28T05:02:34;14.13;;;9.25;;
26157;SDS011;67284;44.782;10.282;2023-02-28T05:07:26;15.32;;;9.45;;
26157;SDS011;67284;44.782;10.282;2023-02-28T05:12:18;13.15;;;8.52;;
26157;SDS011;67284;44.782;10.282;2023-02-28T05:17:10;13.50;;;9.27;;
26157;SDS011;67284;44.782;10.282;2023-02-28T05:22:02;14.10;;;10.75;;
26157;SDS011;67284;44.782;10.282;2023-02-28T05:26:54;14.65;;;8.90;;
26157;SDS011;67284;44.782;10.282;2023-02-28T05:31:46;14.68;;;10.13;;
26157;SDS011;67284;44.782;10.282;2023-02-28T05:36:38;14.32;;;10.30;;
26157;SDS011;67284;44.782;10.282;2023-02-28T05:41:30;12.65;;;8.73;;
26157;SDS011;67284;44.782;10.282;2023-02-28T05:46:22;14.63;;;10.30;;
26157;SDS011;67284;44.782;10.282;2023-02-28T05:51:15;15.80;;;10.05;;
26157;SDS011;67284;44.782;10.282;2023-02-28T05:56:07;15.23;;;10.18;;
26157;SDS011;67284;44.782;10.282;2023-02-28T06:00:59;13.10;;;9.82;;
26157;SDS011;67284;44.782;10.282;2023-02-28T06:05:52;18.13;;;10.20;;
26157;SDS011;67284;44.782;10.282;2023-02-28T06:10:45;11.98;;;9.27;;
26157;SDS011;67284;44.782;10.282;2023-02-28T06:15:37;13.40;;;9.60;;
26157;SDS011;67284;44.782;10.282;2023-02-28T06:20:29;16.80;;;10.52;;
26157;SDS011;67284;44.782;10.282;2023-02-28T06:25:20;15.93;;;12.40;;
26157;SDS011;67284;44.782;10.282;2023-02-28T06:30:13;13.68;;;10.50;;
26157;SDS011;67284;44.782;10.282;2023-02-28T06:35:05;16.02;;;10.13;;
26157;SDS011;67284;44.782;10.282;2023-02-28T06:39:57;14.93;;;10.43;;
26157;SDS011;67284;44.782;10.282;2023-02-28T06:44:50;17.00;;;11.35;;
26157;SDS011;67284;44.782;10.282;2023-02-28T06:49:42;15.88;;;11.48;;
26157;SDS011;67284;44.782;10.282;2023-02-28T06:54:36;17.48;;;11.68;;
26157;SDS011;67284;44.782;10.282;2023-02-28T06:59:28;17.15;;;11.13;;
26157;SDS011;67284;44.782;10.282;2023-02-28T07:04:20;18.10;;;11.80;;
26157;SDS011;67284;44.782;10.282;2023-02-28T07:09:13;15.80;;;11.40;;
26157;SDS011;67284;44.782;10.282;2023-02-28T07:14:05;18.63;;;11.73;;
26157;SDS011;67284;44.782;10.282;2023-02-28T07:18:57;15.10;;;11.43;;
26157;SDS011;67284;44.782;10.282;2023-02-28T07:23:48;16.40;;;11.50;;
26157;SDS011;67284;44.782;10.282;2023-02-28T07:28:41;24.65;;;13.32;;
26157;SDS011;67284;44.782;10.282;2023-02-28T07:33:33;20.05;;;12.10;;
26157;SDS011;67284;44.782;10.282;2023-02-28T07:38:25;21.27;;;12.05;;
26157;SDS011;67284;44.782;10.282;2023-02-28T07:43:17;16.63;;;10.95;;
26157;SDS011;67284;44.782;10.282;2023-02-28T07:48:09;17.25;;;11.88;;
26157;SDS011;67284;44.782;10.282;2023-02-28T07:53:01;23.90;;;13.15;;
26157;SDS011;67284;44.782;10.282;2023-02-28T07:57:53;17.30;;;11.05;;
26157;SDS011;67284;44.782;10.282;2023-02-28T08:02:45;18.17;;;10.98;;
26157;SDS011;67284;44.782;10.282;2023-02-28T08:07:37;20.25;;;11.30;;
26157;SDS011;67284;44.782;10.282;2023-02-28T08:12:29;16.33;;;12.15;;
26157;SDS011;67284;44.782;10.282;2023-02-28T08:17:21;16.85;;;11.43;;
26157;SDS011;67284;44.782;10.282;2023-02-28T08:22:12;18.65;;;12.05;;
26157;SDS011;67284;44.782;10.282;2023-02-28T08:27:05;15.77;;;12.95;;
26157;SDS011;67284;44.782;10.282;2023-02-28T08:31:56;17.08;;;12.32;;
26157;SDS011;67284;44.782;10.282;2023-02-28T08:36:50;17.23;;;11.95;;
26157;SDS011;67284;44.782;10.282;2023-02-28T08:41:42;20.58;;;13.55;;
26157;SDS011;67284;44.782;10.282;2023-02-28T08:46:34;19.83;;;12.35;;
26157;SDS011;67284;44.782;10.282;2023-02-28T08:51:26;18.33;;;12.75;;
26157;SDS011;67284;44.782;10.282;2023-02-28T08:56:19;18.77;;;12.93;;
26157;SDS011;67284;44.782;10.282;2023-02-28T09:01:16;23.98;;;14.23;;
26157;SDS011;67284;44.782;10.282;2023-02-28T09:06:13;395.13;;;43.50;;
26157;SDS011;67284;44.782;10.282;2023-02-28T09:11:05;27.27;;;14.57;;
26157;SDS011;67284;44.782;10.282;2023-02-28T09:16:02;19.13;;;13.40;;
26157;SDS011;67284;44.782;10.282;2023-02-28T09:20:54;18.40;;;13.02;;
26157;SDS011;67284;44.782;10.282;2023-02-28T09:25:47;21.45;;;14.38;;
26157;SDS011;67284;44.782;10.282;2023-02-28T09:30:41;20.88;;;13.88;;
26157;SDS011;67284;44.782;10.282;2023-02-28T09:35:33;23.42;;;14.20;;
26157;SDS011;67284;44.782;10.282;2023-02-28T09:40:26;20.95;;;13.98;;
26157;SDS011;67284;44.782;10.282;2023-02-28T09:45:31;22.70;;;15.05;;
26157;SDS011;67284;44.782;10.282;2023-02-28T09:55:19;22.00;;;13.80;;
26157;SDS011;67284;44.782;10.282;2023-02-28T10:00:21;21.13;;;12.95;;
26157;SDS011;67284;44.782;10.282;2023-02-28T10:05:23;18.92;;;12.00;;
26157;SDS011;67284;44.782;10.282;2023-02-28T10:15:13;20.92;;;13.95;;
26157;SDS011;67284;44.782;10.282;2023-02-28T10:20:09;19.45;;;13.75;;
26157;SDS011;67284;44.782;10.282;2023-02-28T10:25:11;19.30;;;13.15;;
26157;SDS011;67284;44.782;10.282;2023-02-28T10:30:10;17.30;;;12.88;;
26157;SDS011;67284;44.782;10.282;2023-02-28T10:40:00;18.80;;;13.27;;
26157;SDS011;67284;44.782;10.282;2023-02-28T10:45:14;19.48;;;12.70;;
26157;SDS011;67284;44.782;10.282;2023-02-28T10:50:08;19.23;;;12.32;;
26157;SDS011;67284;44.782;10.282;2023-02-28T10:55:37;23.08;;;13.77;;
26157;SDS011;67284;44.782;10.282;2023-02-28T11:00:34;26.58;;;14.82;;
26157;SDS011;67284;44.782;10.282;2023-02-28T11:05:33;17.65;;;12.02;;
26157;SDS011;67284;44.782;10.282;2023-02-28T11:10:28;19.13;;;13.07;;
26157;SDS011;67284;44.782;10.282;2023-02-28T11:15:27;17.30;;;12.38;;
26157;SDS011;67284;44.782;10.282;2023-02-28T11:20:21;20.17;;;13.05;;
26157;SDS011;67284;44.782;10.282;2023-02-28T11:25:21;20.02;;;12.93;;
26157;SDS011;67284;44.782;10.282;2023-02-28T11:30:37;18.77;;;12.43;;
26157;SDS011;67284;44.782;10.282;2023-02-28T11:35:33;21.75;;;15.27;;
26157;SDS011;67284;44.782;10.282;2023-02-28T11:40:45;19.10;;;13.35;;
26157;SDS011;67284;44.782;10.282;2023-02-28T12:11:54;22.23;;;14.10;;
26157;SDS011;67284;44.782;10.282;2023-02-28T12:27:33;20.05;;;13.38;;
26157;SDS011;67284;44.782;10.282;2023-02-28T12:32:37;22.53;;;14.70;;
26157;SDS011;67284;44.782;10.282;2023-02-28T12:42:49;20.50;;;13.82;;
26157;SDS011;67284;44.782;10.282;2023-02-28T12:47:50;17.05;;;12.00;;
26157;SDS011;67284;44.782;10.282;2023-02-28T12:52:56;23.95;;;14.02;;
26157;SDS011;67284;44.782;10.282;2023-02-28T12:58:03;20.40;;;14.27;;
26157;SDS011;67284;44.782;10.282;2023-02-28T13:13:20;20.63;;;14.43;;
26157;SDS011;67284;44.782;10.282;2023-02-28T13:18:35;19.75;;;13.35;;
26157;SDS011;67284;44.782;10.282;2023-02-28T13:44:28;19.88;;;13.45;;
26157;SDS011;67284;44.782;10.282;2023-02-28T14:04:53;24.73;;;15.45;;
26157;SDS011;67284;44.782;10.282;2023-02-28T14:09:55;23.30;;;14.82;;
26157;SDS011;67284;44.782;10.282;2023-02-28T14:19:45;20.25;;;14.52;;
26157;SDS011;67284;44.782;10.282;2023-02-28T14:29:53;21.70;;;14.88;;
26157;SDS011;67284;44.782;10.282;2023-02-28T14:35:04;23.30;;;15.82;;
26157;SDS011;67284;44.782;10.282;2023-02-28T14:40:14;23.60;;;15.57;;
26157;SDS011;67284;44.782;10.282;2023-02-28T14:45:17;25.83;;;16.38;;
26157;SDS011;67284;44.782;10.282;2023-02-28T14:50:18;22.60;;;15.02;;
26157;SDS011;67284;44.782;10.282;2023-02-28T14:55:15;26.23;;;15.57;;
26157;SDS011;67284;44.782;10.282;2023-02-28T15:00:18;28.45;;;16.13;;
26157;SDS011;67284;44.782;10.282;2023-02-28T15:15:15;33.33;;;17.42;;
26157;SDS011;67284;44.782;10.282;2023-02-28T15:20:11;26.40;;;17.55;;
26157;SDS011;67284;44.782;10.282;2023-02-28T15:25:05;28.85;;;18.05;;
26157;SDS011;67284;44.782;10.282;2023-02-28T15:30:00;26.27;;;17.75;;
26157;SDS011;67284;44.782;10.282;2023-02-28T15:34:57;26.25;;;17.42;;
26157;SDS011;67284;44.782;10.282;2023-02-28T15:39:51;23.23;;;16.73;;
26157;SDS011;67284;44.782;10.282;2023-02-28T15:44:43;26.35;;;17.13;;
26157;SDS011;67284;44.782;10.282;2023-02-28T15:49:45;28.13;;;17.85;;
26157;SDS011;67284;44.782;10.282;2023-02-28T15:54:44;28.92;;;16.50;;
26157;SDS011;67284;44.782;10.282;2023-02-28T15:59:42;30.30;;;16.30;;
26157;SDS011;67284;44.782;10.282;2023-02-28T16:04:55;30.05;;;18.83;;
26157;SDS011;67284;44.782;10.282;2023-02-28T16:09:53;37.17;;;21.52;;
26157;SDS011;67284;44.782;10.282;2023-02-28T16:14:45;34.40;;;21.83;;
26157;SDS011;67284;44.782;10.282;2023-02-28T16:19:38;43.67;;;24.85;;
26157;SDS011;67284;44.782;10.282;2023-02-28T16:24:30;32.05;;;19.58;;
26157;SDS011;67284;44.782;10.282;2023-02-28T16:29:30;71.25;;;37.03;;
26157;SDS011;67284;44.782;10.282;2023-02-28T16:34:23;56.65;;;31.45;;
26157;SDS011;67284;44.782;10.282;2023-02-28T16:39:15;43.25;;;26.13;;
26157;SDS011;67284;44.782;10.282;2023-02-28T16:44:09;30.27;;;20.15;;
26157;SDS011;67284;44.782;10.282;2023-02-28T16:49:05;31.92;;;22.17;;
26157;SDS011;67284;44.782;10.282;2023-02-28T16:54:02;31.45;;;20.15;;
26157;SDS011;67284;44.782;10.282;2023-02-28T16:58:55;35.53;;;19.83;;
26157;SDS011;67284;44.782;10.282;2023-02-28T17:03:50;27.33;;;19.05;;
26157;SDS011;67284;44.782;10.282;2023-02-28T17:08:42;26.65;;;17.83;;
26157;SDS011;67284;44.782;10.282;2023-02-28T17:13:34;31.30;;;19.00;;
26157;SDS011;67284;44.782;10.282;2023-02-28T17:18:26;25.67;;;18.52;;
26157;SDS011;67284;44.782;10.282;2023-02-28T17:23:20;27.85;;;17.30;;
26157;SDS011;67284;44.782;10.282;2023-02-28T17:28:12;31.48;;;17.67;;
26157;SDS011;67284;44.782;10.282;2023-02-28T17:33:03;28.58;;;17.83;;
26157;SDS011;67284;44.782;10.282;2023-02-28T17:37:55;26.05;;;17.40;;
26157;SDS011;67284;44.782;10.282;2023-02-28T17:42:47;27.73;;;18.95;;
26157;SDS011;67284;44.782;10.282;2023-02-28T17:47:39;30.05;;;18.27;;
26157;SDS011;67284;44.782;10.282;2023-02-28T17:52:32;34.08;;;19.45;;
26157;SDS011;67284;44.782;10.282;2023-02-28T17:57:28;28.45;;;19.08;;
26157;SDS011;67284;44.782;10.282;2023-02-28T18:02:19;30.58;;;20.00;;
26157;SDS011;67284;44.782;10.282;2023-02-28T18:07:11;26.95;;;19.65;;
26157;SDS011;67284;44.782;10.282;2023-02-28T18:12:03;31.13;;;19.58;;
26157;SDS011;67284;44.782;10.282;2023-02-28T18:16:55;27.35;;;19.48;;
26157;SDS011;67284;44.782;10.282;2023-02-28T18:21:48;34.50;;;20.25;;
26157;SDS011;67284;44.782;10.282;2023-02-28T18:26:44;28.98;;;19.65;;
26157;SDS011;67284;44.782;10.282;2023-02-28T18:31:36;34.00;;;20.95;;
26157;SDS011;67284;44.782;10.282;2023-02-28T18:36:28;103.93;;;46.90;;
26157;SDS011;67284;44.782;10.282;2023-02-28T18:41:20;101.82;;;45.65;;
26157;SDS011;67284;44.782;10.282;2023-02-28T18:46:13;56.90;;;30.10;;
26157;SDS011;67284;44.782;10.282;2023-02-28T18:51:07;62.38;;;32.10;;
26157;SDS011;67284;44.782;10.282;2023-02-28T18:56:00;60.30;;;31.02;;
26157;SDS011;67284;44.782;10.282;2023-02-28T19:00:52;47.45;;;25.27;;
26157;SDS011;67284;44.782;10.282;2023-02-28T19:05:45;40.08;;;24.23;;
26157;SDS011;67284;44.782;10.282;2023-02-28T19:10:38;44.20;;;25.90;;
26157;SDS011;67284;44.782;10.282;2023-02-28T19:15:33;38.80;;;23.40;;
26157;SDS011;67284;44.782;10.282;2023-02-28T19:20:25;38.13;;;23.48;;
26157;SDS011;67284;44.782;10.282;2023-02-28T19:25:16;34.15;;;22.13;;
26157;SDS011;67284;44.782;10.282;2023-02-28T19:30:09;35.72;;;21.85;;
26157;SDS011;67284;44.782;10.282;2023-02-28T19:35:01;36.78;;;23.75;;
26157;SDS011;67284;44.782;10.282;2023-02-28T19:39:55;36.60;;;25.30;;
26157;SDS011;67284;44.782;10.282;2023-02-28T19:44:47;48.95;;;31.10;;
26157;SDS011;67284;44.782;10.282;2023-02-28T19:49:39;54.10;;;32.38;;
26157;SDS011;67284;44.782;10.282;2023-02-28T19:54:31;44.25;;;29.25;;
26157;SDS011;67284;44.782;10.282;2023-02-28T19:59:25;44.55;;;29.10;;
26157;SDS011;67284;44.782;10.282;2023-02-28T20:04:28;61.53;;;38.85;;
26157;SDS011;67284;44.782;10.282;2023-02-28T20:09:20;48.53;;;30.95;;
26157;SDS011;67284;44.782;10.282;2023-02-28T20:14:12;41.30;;;26.25;;
26157;SDS011;67284;44.782;10.282;2023-02-28T20:19:05;46.08;;;28.02;;
26157;SDS011;67284;44.782;10.282;2023-02-28T20:23:57;42.08;;;26.70;;
26157;SDS011;67284;44.782;10.282;2023-02-28T20:28:48;41.88;;;27.95;;
26157;SDS011;67284;44.782;10.282;2023-02-28T20:33:41;42.33;;;25.40;;
26157;SDS011;67284;44.782;10.282;2023-02-28T20:38:37;38.40;;;25.08;;
26157;SDS011;67284;44.782;10.282;2023-02-28T20:43:29;42.67;;;25.98;;
26157;SDS011;67284;44.782;10.282;2023-02-28T20:48:21;37.05;;;24.13;;
26157;SDS011;67284;44.782;10.282;2023-02-28T20:53:13;35.63;;;24.15;;
26157;SDS011;67284;44.782;10.282;2023-02-28T20:58:05;35.60;;;24.20;;
26157;SDS011;67284;44.782;10.282;2023-02-28T21:02:57;38.78;;;24.13;;
26157;SDS011;67284;44.782;10.282;2023-02-28T21:07:49;38.20;;;25.55;;
26157;SDS011;67284;44.782;10.282;2023-02-28T21:12:41;35.65;;;23.65;;
26157;SDS011;67284;44.782;10.282;2023-02-28T21:17:32;34.60;;;23.88;;
26157;SDS011;67284;44.782;10.282;2023-02-28T21:22:24;36.63;;;24.50;;
26157;SDS011;67284;44.782;10.282;2023-02-28T21:27:16;34.92;;;22.95;;
26157;SDS011;67284;44.782;10.282;2023-02-28T21:32:08;44.67;;;27.27;;
26157;SDS011;67284;44.782;10.282;2023-02-28T21:37:00;38.78;;;26.33;;
26157;SDS011;67284;44.782;10.282;2023-02-28T21:41:52;37.08;;;25.33;;
26157;SDS011;67284;44.782;10.282;2023-02-28T21:46:45;32.53;;;23.83;;
26157;SDS011;67284;44.782;10.282;2023-02-28T21:51:39;37.45;;;24.15;;
26157;SDS011;67284;44.782;10.282;2023-02-28T21:56:33;36.75;;;24.67;;
26157;SDS011;67284;44.782;10.282;2023-02-28T22:01:33;34.53;;;23.65;;
26157;SDS011;67284;44.782;10.282;2023-02-28T22:06:28;35.35;;;24.85;;
26157;SDS011;67284;44.782;10.282;2023-02-28T22:11:22;33.33;;;23.15;;
26157;SDS011;67284;44.782;10.282;2023-02-28T22:16:15;36.10;;;24.65;;
26157;SDS011;67284;44.782;10.282;2023-02-28T22:21:09;38.78;;;25.90;;
26157;SDS011;67284;44.782;10.282;2023-02-28T22:26:03;41.30;;;27.85;;
26157;SDS011;67284;44.782;10.282;2023-02-28T22:30:57;43.08;;;27.92;;
26157;SDS011;67284;44.782;10.282;2023-02-28T22:35:49;40.80;;;27.73;;
26157;SDS011;67284;44.782;10.282;2023-02-28T22:40:41;40.88;;;24.90;;
26157;SDS011;67284;44.782;10.282;2023-02-28T22:45:37;41.55;;;26.05;;
26157;SDS011;67284;44.782;10.282;2023-02-28T22:50:29;39.75;;;26.40;;
26157;SDS011;67284;44.782;10.282;2023-02-28T22:55:21;37.58;;;24.95;;
26157;SDS011;67284;44.782;10.282;2023-02-28T23:00:13;42.13;;;25.98;;
26157;SDS011;67284;44.782;10.282;2023-02-28T23:05:05;41.10;;;25.73;;
26157;SDS011;67284;44.782;10.282;2023-02-28T23:09:57;39.50;;;25.90;;
26157;SDS011;67284;44.782;10.282;2023-02-28T23:14:49;40.50;;;26.02;;
26157;SDS011;67284;44.782;10.282;2023-02-28T23:19:41;39.50;;;25.20;;
26157;SDS011;67284;44.782;10.282;2023-02-28T23:24:33;43.67;;;29.25;;
26157;SDS011;67284;44.782;10.282;2023-02-28T23:29:27;40.80;;;25.77;;
26157;SDS011;67284;44.782;10.282;2023-02-28T23:34:19;35.00;;;23.98;;
26157;SDS011;67284;44.782;10.282;2023-02-28T23:39:17;42.00;;;26.87;;
26157;SDS011;67284;44.782;10.282;2023-02-28T23:44:09;39.85;;;25.13;;
26157;SDS011;67284;44.782;10.282;2023-02-28T23:49:07;39.67;;;26.40;;
26157;SDS011;67284;44.782;10.282;2023-02-28T23:53:59;41.10;;;27.40;;
26157;SDS011;67284;44.782;10.282;2023-02-28T23:58:53;36.63;;;24.80;;
